セーシェル国際空港の過去48時間の天気

セーシェル国際空港 (Seychelles Inter-National Airport)

現在時刻: 5/26 06:10 +04 (5/26 02:10 UTC) 以下の時間は現地時間です。

過去48時間のMETAR気象情報
時間 風向 風速(m/s) 視程 気温(℃) 湿度(%) 気圧(hPa) 天気現象
26 05:00 南南東 4 10km以上 26 89 1011
26 04:00 4 10km以上 26 84 1011
26 03:31 3 10km以上 25 94 1011 弱いしゅう雨
26 03:00 南南東 4 8000m 25 94 1011 しゅう雨
26 02:00 南南東 2 10km以上 27 84 1011
26 01:00 2 10km以上 27 79 1012
26 00:00 不定 2 10km以上 27 74 1012
25 23:00 不定 1 10km以上 26 79 1013
25 22:00 南西 2 10km以上 25 83 1013
25 21:00 3 10km以上 26 79 1013
25 20:00 3 10km以上 26 84 1012
25 19:00 南南西 2 10km以上 26 89 1012
25 18:00 東北東 4 10km以上 26 89 1011 弱いしゅう雨
25 17:00 不定 1 10km以上 29 70 1010
25 16:00 2 10km以上 29 70 1010
25 15:00 東北東 2 10km以上 30 70 1009
25 14:00 3 10km以上 30 70 1010
25 12:00 4 10km以上 30 70 1011
25 11:00 東南東 4 10km以上 30 66 1012
25 10:00 東南東 4 10km以上 30 70 1012
25 09:00 南東 5 10km以上 28 74 1012
25 08:00 南南東 3 10km以上 27 79 1011
25 07:00 南南東 4 10km以上 26 84 1010
25 06:00 南東 2 10km以上 26 84 1010
25 05:00 東南東 4 10km以上 26 89 1009
25 04:00 不定 1 10km以上 26 84 1009
25 03:00 不定 1 10km以上 26 84 1009
25 02:00 不定 1 10km以上 26 79 1009
25 01:00 不定 1 10km以上 26 79 1009
25 00:00 西南西 2 10km以上 27 74 1010
24 23:00 4 10km以上 27 79 1010
24 22:00 4 10km以上 28 74 1011
24 21:00 3 10km以上 27 79 1011
24 20:00 5 10km以上 27 79 1010
24 19:00 南東 4 10km以上 27 79 1009
24 18:00 南南東 5 10km以上 28 74 1009
24 17:00 南南東 5 10km以上 28 74 1008
24 16:00 南東 5 10km以上 29 70 1008
24 15:00 南東 5 10km以上 30 70 1008
24 14:00 東南東 5 10km以上 30 66 1008
24 13:00 南東 5 10km以上 30 70 1009
24 12:00 南東 6 10km以上 30 70 1010
24 11:00 南東 6 10km以上 29 70 1010
24 10:00 東南東 6 10km以上 30 70 1010
24 09:00 東南東 7 10km以上 29 70 1010
24 08:00 南南東 4 10km以上 28 74 1010
24 07:00 南南東 4 10km以上 27 79 1009
FSIA 260100Z 16008KT 130V210 9999 FEW022 26/24 Q1011 NOSIG
FSIA 260000Z 18007KT 9999 SCT020 26/23 Q1011 RESHRA NOSIG
FSIA 252331Z 19005KT 9999 -SHRA FEW014 SCT020 25/24 Q1011 RESHRA NOSIG
FSIA 252300Z 16007KT 130V210 8000 SHRA FEW014 BKN018 25/24 Q1011 TEMPO 5000
FSIA 252200Z 16003KT 130V210 9999 FEW022 27/24 Q1011 NOSIG
FSIA 252100Z 17003KT 130V230 9999 FEW024 27/23 Q1012 NOSIG
FSIA 252000Z VRB04KT 9999 FEW024 27/22 Q1012 NOSIG
FSIA 251900Z VRB02KT 9999 FEW024 26/22 Q1013 NOSIG
FSIA 251800Z 22003KT 190V260 9999 FEW024 25/22 Q1013 NOSIG
FSIA 251700Z 18005KT 9999 FEW022 26/22 Q1013 NOSIG
FSIA 251600Z 18005KT 9999 SCT022 26/23 Q1012 NOSIG
FSIA 251500Z 21004KT 180V240 9999 SCT022 26/24 Q1012 NOSIG
FSIA 251400Z 07008KT 040V160 9999 -SHRA BKN021 26/24 Q1011 NOSIG
FSIA 251300Z VRB02KT 9999 SCT022 29/23 Q1010 NOSIG
FSIA 251200Z 09003KT 050V110 9999 FEW025 29/23 Q1010 NOSIG
FSIA 251100Z 06003KT 350V100 9999 FEW024 30/24 Q1009 NOSIG
FSIA 251000Z 08006KT 9999 FEW023 30/24 Q1010 NOSIG
FSIA 250800Z 09007KT 9999 FEW025 30/24 Q1011 NOSIG
FSIA 250700Z 11008KT 080V140 9999 FEW024 30/23 Q1012 NOSIG
FSIA 250600Z 11008KT 080V140 9999 FEW023 30/24 Q1012 NOSIG
FSIA 250500Z 13009KT 110V170 9999 FEW023 28/23 Q1012 NOSIG
FSIA 250400Z 15005KT 9999 FEW022 BKN040 27/23 Q1011 NOSIG
FSIA 250300Z 16007KT 9999 FEW024 BKN040 26/23 Q1010 NOSIG
FSIA 250200Z 14004KT 080V210 9999 FEW023 26/23 Q1010 NOSIG
FSIA 250100Z 12007KT 9999 FEW024 26/24 Q1009 NOSIG
FSIA 250000Z VRB02KT 9999 FEW023 26/23 Q1009 NOSIG
FSIA 242300Z VRB02KT 9999 FEW024 26/23 Q1009 NOSIG
FSIA 242200Z VRB02KT 9999 FEW024 26/22 Q1009 NOSIG
FSIA 242100Z VRB02KT 9999 FEW025 26/22 Q1009 NOSIG
FSIA 242000Z 25003KT 160V320 9999 FEW024 27/22 Q1010 NOSIG
FSIA 241900Z 18007KT 150V210 9999 FEW025 27/23 Q1010 NOSIG
FSIA 241800Z 17007KT 140V210 9999 FEW025 28/23 Q1011 NOSIG
FSIA 241700Z 17006KT 140V210 9999 FEW025 27/23 Q1011 NOSIG
FSIA 241600Z 19009KT 150V230 9999 FEW024 27/23 Q1010 NOSIG
FSIA 241500Z 13008KT 150V210 9999 FEW024 27/23 Q1009 NOSIG
FSIA 241400Z 15010KT 110V200 9999 FEW024 28/23 Q1009 NOSIG
FSIA 241300Z 15009KT 120V200 9999 FEW024 28/23 Q1008 NOSIG
FSIA 241200Z 14009KT 110V180 9999 FEW024 29/23 Q1008 NOSIG
FSIA 241100Z 13010KT 100V200 9999 FEW022 30/24 Q1008 NOSIG
FSIA 241000Z 12010G21KT 090V180 9999 FEW024 30/23 Q1008 NOSIG
FSIA 240900Z 13010KT 100V170 9999 FEW024 30/24 Q1009 NOSIG
FSIA 240800Z 13011G22KT 080V180 9999 SCT024 30/24 Q1010 NOSIG
FSIA 240700Z 14011G24KT 100V200 9999 SCT022 29/23 Q1010 NOSIG
FSIA 240600Z 12012G22KT 080V160 9999 SCT022 30/24 Q1010 NOSIG
FSIA 240500Z 12013G23KT 080V200 9999 FEW022 29/23 Q1010 NOSIG
FSIA 240400Z 15008KT 130V210 9999 FEW022 28/23 Q1010 NOSIG
FSIA 240300Z 16007KT 120V200 9999 FEW022 27/23 Q1009 NOSIG